createdAt,value
2019-01-28T00:01:47.808Z,100.00
2019-01-28T00:04:17.505Z,100.00
2019-01-28T00:06:46.667Z,100.00
2019-01-28T00:09:16.231Z,100.00
2019-01-28T00:11:47.199Z,100.00
2019-01-28T00:14:16.738Z,100.00
2019-01-28T00:16:46.469Z,100.00
2019-01-28T00:19:16.373Z,100.00
2019-01-28T00:21:45.621Z,100.00
2019-01-28T00:24:15.467Z,100.00
2019-01-28T00:26:44.997Z,99.99
2019-01-28T00:29:15.635Z,100.00
2019-01-28T00:31:45.191Z,100.00
2019-01-28T00:34:14.689Z,99.98
2019-01-28T00:36:44.386Z,99.83
2019-01-28T00:39:13.844Z,100.00
2019-01-28T00:41:43.086Z,100.00
2019-01-28T00:44:12.296Z,100.00
2019-01-28T00:46:41.497Z,100.00
2019-01-28T00:49:11.098Z,100.00
2019-01-28T00:51:40.347Z,100.00
2019-01-28T00:54:09.890Z,100.00
2019-01-28T00:56:39.023Z,100.00
2019-01-28T00:59:08.213Z,100.00
2019-01-28T01:01:38.965Z,100.00
2019-01-28T01:04:08.752Z,100.00
2019-01-28T01:06:37.917Z,100.00
2019-01-28T01:09:08.433Z,100.00
2019-01-28T01:11:37.636Z,100.00
2019-01-28T01:14:06.937Z,100.00
2019-01-28T01:16:36.120Z,100.00
2019-01-28T01:19:05.309Z,100.00
2019-01-28T01:21:34.482Z,100.00
2019-01-28T01:24:04.349Z,100.00
2019-01-28T01:26:33.603Z,100.00
2019-01-28T01:29:04.635Z,100.00
2019-01-28T01:31:33.765Z,100.00
2019-01-28T01:34:03.692Z,100.00
2019-01-28T01:36:32.853Z,100.00
2019-01-28T01:39:02.222Z,100.00
2019-01-28T01:41:31.380Z,100.00
2019-01-28T01:44:00.810Z,100.00
2019-01-28T01:46:30.123Z,100.00
2019-01-28T01:48:59.313Z,100.00
2019-01-28T01:51:28.821Z,100.00
2019-01-28T01:53:57.997Z,100.00
2019-01-28T01:56:28.217Z,100.00
2019-01-28T01:58:57.754Z,100.00
2019-01-28T02:01:27.258Z,100.00
2019-01-28T02:03:56.534Z,100.00
2019-01-28T02:06:26.073Z,100.00
2019-01-28T02:08:55.541Z,100.00
2019-01-28T02:11:25.199Z,100.00
2019-01-28T02:13:54.347Z,100.00
2019-01-28T02:16:23.884Z,100.00
2019-01-28T02:18:53.108Z,100.00
2019-01-28T02:21:22.901Z,100.00
2019-01-28T02:23:52.132Z,100.00
2019-01-28T02:26:21.286Z,100.00
2019-01-28T02:28:52.236Z,100.00
2019-01-28T02:31:21.851Z,100.00
2019-01-28T02:33:51.369Z,100.00
2019-01-28T02:36:22.540Z,100.00
2019-01-28T02:38:52.187Z,100.00
2019-01-28T02:41:21.384Z,100.00
2019-01-28T02:43:50.896Z,100.00
2019-01-28T02:46:20.062Z,100.00
2019-01-28T02:48:49.618Z,100.00
2019-01-28T02:51:18.799Z,100.00
2019-01-28T02:53:48.120Z,100.00
2019-01-28T02:56:17.396Z,100.00
2019-01-28T02:58:46.610Z,100.00
2019-01-28T03:01:16.438Z,100.00
2019-01-28T03:03:47.429Z,100.00
2019-01-28T03:06:16.662Z,100.00
2019-01-28T03:08:45.792Z,100.00
2019-01-28T03:11:14.995Z,100.00
2019-01-28T03:13:44.542Z,100.00
2019-01-28T03:16:13.890Z,100.00
2019-01-28T03:18:43.809Z,100.00
2019-01-28T03:21:12.975Z,100.00
2019-01-28T03:23:42.320Z,100.00
2019-01-28T03:26:11.920Z,100.00
2019-01-28T03:28:41.577Z,100.00
2019-01-28T03:31:11.555Z,100.00
2019-01-28T03:33:41.139Z,100.00
2019-01-28T03:36:10.346Z,100.00
2019-01-28T03:38:39.550Z,100.00
2019-01-28T03:41:08.749Z,100.00
2019-01-28T03:43:37.919Z,100.00
2019-01-28T03:46:09.660Z,100.00
2019-01-28T03:48:38.367Z,100.00
2019-01-28T03:51:07.982Z,100.00
2019-01-28T03:53:39.573Z,100.00
2019-01-28T03:56:08.736Z,100.00
2019-01-28T03:58:37.949Z,100.00
2019-01-28T04:01:07.209Z,100.00
2019-01-28T04:03:36.423Z,100.00
2019-01-28T04:06:05.812Z,100.00
2019-01-28T04:08:35.270Z,100.00
2019-01-28T04:11:05.437Z,100.00
2019-01-28T04:13:34.648Z,100.00
2019-01-28T04:16:03.812Z,100.00
2019-01-28T04:18:33.437Z,100.00
2019-01-28T04:21:03.031Z,100.00
2019-01-28T04:23:32.621Z,100.00
2019-01-28T04:26:02.260Z,100.00
2019-01-28T04:28:31.535Z,100.00
2019-01-28T04:31:00.722Z,100.00
2019-01-28T04:33:30.237Z,100.00
2019-01-28T04:35:59.430Z,100.00
2019-01-28T04:38:28.645Z,100.00
2019-01-28T04:40:58.224Z,100.00
2019-01-28T04:43:27.457Z,100.00
2019-01-28T04:45:57.789Z,100.00
2019-01-28T04:48:27.156Z,100.00
2019-01-28T04:50:56.484Z,100.00
2019-01-28T04:53:25.761Z,100.00
2019-01-28T04:55:54.928Z,100.00
2019-01-28T04:58:24.325Z,100.00
2019-01-28T05:00:53.882Z,100.00
2019-01-28T05:03:23.079Z,100.00
2019-01-28T05:05:52.708Z,100.00
2019-01-28T05:08:22.309Z,100.00
2019-01-28T05:10:51.541Z,100.00
2019-01-28T05:13:20.735Z,100.00
2019-01-28T05:15:50.374Z,100.00
2019-01-28T05:18:22.362Z,100.00
2019-01-28T05:20:51.866Z,100.00
2019-01-28T05:23:21.225Z,100.00
2019-01-28T05:25:50.948Z,100.00
2019-01-28T05:28:20.120Z,100.00
2019-01-28T05:30:49.336Z,100.00
2019-01-28T05:33:18.962Z,100.00
2019-01-28T05:35:48.511Z,100.00
2019-01-28T05:38:18.099Z,100.00
2019-01-28T05:40:47.263Z,100.00
2019-01-28T05:43:16.708Z,100.00
2019-01-28T05:45:45.896Z,100.00
2019-01-28T05:48:15.403Z,100.00
2019-01-28T05:50:45.357Z,100.00
2019-01-28T05:53:14.928Z,100.00
2019-01-28T05:55:44.547Z,100.00
2019-01-28T05:58:13.739Z,100.00
2019-01-28T06:00:45.904Z,100.00
2019-01-28T06:03:18.057Z,100.00
2019-01-28T06:05:49.409Z,100.00
2019-01-28T06:08:18.312Z,100.00
2019-01-28T06:10:48.951Z,100.00
2019-01-28T06:13:18.176Z,100.00
2019-01-28T06:15:49.196Z,100.00
2019-01-28T06:18:18.860Z,100.00
2019-01-28T06:20:48.460Z,100.00
2019-01-28T06:23:17.771Z,100.00
2019-01-28T06:25:47.033Z,100.00
2019-01-28T06:28:16.673Z,100.00
2019-01-28T06:30:46.581Z,100.00
2019-01-28T06:33:16.657Z,100.00
2019-01-28T06:35:45.905Z,100.00
2019-01-28T06:38:15.057Z,100.00
2019-01-28T06:40:44.440Z,100.00
2019-01-28T06:43:13.644Z,100.00
2019-01-28T06:45:43.160Z,100.00
2019-01-28T06:48:12.394Z,100.00
2019-01-28T06:50:41.594Z,100.00
2019-01-28T06:53:11.173Z,100.00
2019-01-28T06:55:40.389Z,100.00
2019-01-28T06:58:09.587Z,100.00
2019-01-28T07:00:38.981Z,100.00
2019-01-28T07:03:09.159Z,100.00
2019-01-28T07:05:40.142Z,100.00
2019-01-28T07:08:09.517Z,100.00
2019-01-28T07:10:39.075Z,100.00
2019-01-28T07:13:08.673Z,100.00
2019-01-28T07:15:37.939Z,100.00
2019-01-28T07:18:07.173Z,100.00
2019-01-28T07:20:36.374Z,100.00
2019-01-28T07:23:06.141Z,100.00
2019-01-28T07:25:35.316Z,100.00
2019-01-28T07:28:04.871Z,100.00
2019-01-28T07:30:36.219Z,100.00
2019-01-28T07:33:05.957Z,100.00
2019-01-28T07:35:35.651Z,100.00
2019-01-28T07:38:05.359Z,100.00
2019-01-28T07:40:34.569Z,100.00
2019-01-28T07:43:03.774Z,100.00
2019-01-28T07:45:45.177Z,100.00
2019-01-28T07:48:09.048Z,100.00
2019-01-28T07:50:38.633Z,100.00
2019-01-28T07:53:08.248Z,100.00
2019-01-28T07:55:37.466Z,100.00
2019-01-28T07:58:07.445Z,100.00
2019-01-28T08:00:38.946Z,100.00
2019-01-28T08:03:10.076Z,100.00
2019-01-28T08:05:39.254Z,100.00
2019-01-28T08:08:08.648Z,100.00
2019-01-28T08:10:38.140Z,100.00
2019-01-28T08:13:07.863Z,100.00
2019-01-28T08:15:38.554Z,100.00
2019-01-28T08:18:10.905Z,100.00
2019-01-28T08:20:39.183Z,100.00
2019-01-28T08:23:08.351Z,100.00
2019-01-28T08:25:37.553Z,100.00
2019-01-28T08:28:06.962Z,100.00
2019-01-28T08:30:38.185Z,100.00
2019-01-28T08:33:07.388Z,100.00
2019-01-28T08:35:37.966Z,100.00
2019-01-28T08:38:07.763Z,100.00
2019-01-28T08:40:37.002Z,100.00
2019-01-28T08:43:06.565Z,100.00
2019-01-28T08:45:36.169Z,100.00
2019-01-28T08:48:05.607Z,100.00
2019-01-28T08:50:34.768Z,100.00
2019-01-28T08:53:04.275Z,100.00
2019-01-28T08:55:35.204Z,100.00
2019-01-28T08:58:04.832Z,100.00
2019-01-28T09:00:40.409Z,100.00
2019-01-28T09:03:09.977Z,100.00
2019-01-28T09:05:39.157Z,100.00
2019-01-28T09:08:09.609Z,100.00
2019-01-28T09:10:39.119Z,100.00
2019-01-28T09:13:09.002Z,100.00
2019-01-28T09:15:38.720Z,100.00
2019-01-28T09:18:09.753Z,100.00
2019-01-28T09:20:39.087Z,100.00
2019-01-28T09:23:08.582Z,99.96
2019-01-28T09:25:37.872Z,100.00
2019-01-28T09:28:07.080Z,100.00
2019-01-28T09:30:36.423Z,100.00
2019-01-28T09:33:05.875Z,100.00
2019-01-28T09:35:35.275Z,100.00
2019-01-28T09:38:05.783Z,100.00
2019-01-28T09:40:35.692Z,100.00
2019-01-28T09:43:05.803Z,100.00
2019-01-28T09:45:37.316Z,100.00
2019-01-28T09:48:07.283Z,100.00
2019-01-28T09:50:36.505Z,100.00
2019-01-28T09:53:06.240Z,100.00
2019-01-28T09:55:35.862Z,100.00
2019-01-28T09:58:06.527Z,100.00
2019-01-28T10:00:39.221Z,100.00
2019-01-28T10:03:10.271Z,100.00
2019-01-28T10:05:39.718Z,100.00
2019-01-28T10:08:09.337Z,99.88
2019-01-28T10:10:38.537Z,99.91
2019-01-28T10:13:08.329Z,100.00
2019-01-28T10:15:39.432Z,100.00
2019-01-28T10:18:08.675Z,100.00
2019-01-28T10:20:44.808Z,100.00
2019-01-28T10:23:15.067Z,100.00
2019-01-28T10:25:44.550Z,100.00
2019-01-28T10:28:14.451Z,100.00
2019-01-28T10:30:44.570Z,100.00
2019-01-28T10:33:14.352Z,100.00
2019-01-28T10:35:45.362Z,100.00
2019-01-28T10:38:15.070Z,100.00
2019-01-28T10:40:44.827Z,100.00
2019-01-28T10:43:14.069Z,100.00
2019-01-28T10:45:43.599Z,100.00
2019-01-28T10:48:14.078Z,100.00
2019-01-28T10:50:44.767Z,100.00
2019-01-28T10:53:14.156Z,100.00
2019-01-28T10:55:43.491Z,100.00
2019-01-28T10:58:13.095Z,100.00
2019-01-28T11:00:52.514Z,100.00
2019-01-28T11:03:23.981Z,100.00
2019-01-28T11:05:53.570Z,100.00
2019-01-28T11:08:23.786Z,100.00
2019-01-28T11:10:53.062Z,100.00
2019-01-28T11:13:22.652Z,100.00
2019-01-28T11:15:51.966Z,100.00
2019-01-28T11:18:24.958Z,100.00
2019-01-28T11:20:54.369Z,100.00
2019-01-28T11:23:23.667Z,100.00
2019-01-28T11:25:52.935Z,100.00
2019-01-28T11:28:22.563Z,100.00
2019-01-28T11:30:57.365Z,100.00
2019-01-28T11:33:26.701Z,100.00
2019-01-28T11:35:57.435Z,100.00
2019-01-28T11:38:26.996Z,100.00
2019-01-28T11:40:56.340Z,100.00
2019-01-28T11:43:25.596Z,100.00
2019-01-28T11:46:03.437Z,100.00
2019-01-28T11:48:33.162Z,100.00
2019-01-28T11:51:03.268Z,100.00
2019-01-28T11:53:34.277Z,100.00
2019-01-28T11:56:03.767Z,100.00
2019-01-28T11:58:32.946Z,100.00
2019-01-28T12:01:10.493Z,100.00
2019-01-28T12:03:39.739Z,100.00
2019-01-28T12:06:09.140Z,100.00
2019-01-28T12:08:38.378Z,100.00
2019-01-28T12:11:07.771Z,100.00
2019-01-28T12:13:36.981Z,100.00
2019-01-28T12:16:06.881Z,100.00
2019-01-28T12:18:36.044Z,100.00
2019-01-28T12:21:06.042Z,100.00
2019-01-28T12:23:35.782Z,100.00
2019-01-28T12:26:04.989Z,100.00
2019-01-28T12:28:34.191Z,100.00
2019-01-28T12:31:06.868Z,100.00
2019-01-28T12:33:36.235Z,100.00
2019-01-28T12:36:05.851Z,100.00
2019-01-28T12:38:35.001Z,100.00
2019-01-28T12:41:06.055Z,100.00
2019-01-28T12:43:35.483Z,100.00
2019-01-28T12:46:05.154Z,100.00
2019-01-28T12:48:34.900Z,100.00
2019-01-28T12:51:04.101Z,100.00
2019-01-28T12:53:33.330Z,100.00
2019-01-28T12:56:02.588Z,100.00
2019-01-28T12:58:31.895Z,100.00
2019-01-28T13:01:05.610Z,100.00
2019-01-28T13:03:35.534Z,100.00
2019-01-28T13:06:05.274Z,100.00
2019-01-28T13:08:34.590Z,100.00
2019-01-28T13:11:03.798Z,100.00
2019-01-28T13:13:33.039Z,100.00
2019-01-28T13:16:02.705Z,100.00
2019-01-28T13:18:32.192Z,100.00
2019-01-28T13:21:01.533Z,100.00
2019-01-28T13:23:30.703Z,100.00
2019-01-28T13:25:59.883Z,100.00
2019-01-28T13:28:29.772Z,100.00
2019-01-28T13:30:58.937Z,100.00
2019-01-28T13:33:28.543Z,100.00
2019-01-28T13:35:58.462Z,100.00
2019-01-28T13:38:29.805Z,100.00
2019-01-28T13:40:58.984Z,100.00
2019-01-28T13:43:28.521Z,100.00
2019-01-28T13:45:58.089Z,100.00
2019-01-28T13:48:27.289Z,100.00
2019-01-28T13:50:58.567Z,100.00
2019-01-28T13:53:28.273Z,100.00
2019-01-28T13:55:57.799Z,100.00
2019-01-28T13:58:26.981Z,100.00
2019-01-28T14:00:56.698Z,100.00
2019-01-28T14:03:26.136Z,100.00
2019-01-28T14:05:55.408Z,100.00
2019-01-28T14:08:24.580Z,100.00
2019-01-28T14:10:54.084Z,100.00
2019-01-28T14:13:25.090Z,100.00
2019-01-28T14:15:54.272Z,100.00
2019-01-28T14:18:23.959Z,100.00
2019-01-28T14:20:56.251Z,100.00
2019-01-28T14:23:25.639Z,100.00
2019-01-28T14:25:55.549Z,100.00
2019-01-28T14:28:24.753Z,100.00
2019-01-28T14:30:53.928Z,100.00
2019-01-28T14:33:23.882Z,100.00
2019-01-28T14:35:54.906Z,100.00
2019-01-28T14:38:24.185Z,100.00
2019-01-28T14:40:53.513Z,100.00
2019-01-28T14:43:23.042Z,100.00
2019-01-28T14:45:52.511Z,100.00
2019-01-28T14:48:22.181Z,100.00
2019-01-28T14:50:51.749Z,100.00
2019-01-28T14:53:20.930Z,100.00
2019-01-28T14:55:50.099Z,100.00
2019-01-28T14:58:20.809Z,100.00
2019-01-28T15:00:50.274Z,100.00
2019-01-28T15:03:19.473Z,100.00
2019-01-28T15:05:48.981Z,100.00
2019-01-28T15:08:18.496Z,100.00
2019-01-28T15:10:47.694Z,100.00
2019-01-28T15:13:16.974Z,100.00
2019-01-28T15:15:46.135Z,100.00
2019-01-28T15:18:17.746Z,100.00
2019-01-28T15:20:46.995Z,100.00
2019-01-28T15:23:16.801Z,100.00
2019-01-28T15:25:46.014Z,100.00
2019-01-28T15:28:15.593Z,100.00
2019-01-28T15:30:44.817Z,100.00
2019-01-28T15:33:14.013Z,100.00
2019-01-28T15:35:43.885Z,100.00
2019-01-28T15:38:14.894Z,100.00
2019-01-28T15:40:44.229Z,100.00
2019-01-28T15:43:13.464Z,100.00
2019-01-28T15:45:44.204Z,100.00
2019-01-28T15:48:13.380Z,100.00
2019-01-28T15:50:42.561Z,100.00
2019-01-28T15:53:12.067Z,100.00
2019-01-28T15:55:42.935Z,100.00
2019-01-28T15:58:13.299Z,100.00
2019-01-28T16:00:45.380Z,100.00
2019-01-28T16:03:15.174Z,100.00
2019-01-28T16:05:44.739Z,100.00
2019-01-28T16:08:13.943Z,97.65
2019-01-28T16:10:43.142Z,96.76
2019-01-28T16:13:12.437Z,96.41
2019-01-28T16:15:43.914Z,96.07
2019-01-28T16:18:13.504Z,94.86
2019-01-28T16:20:43.365Z,93.99
2019-01-28T16:23:12.692Z,94.60
2019-01-28T16:25:41.855Z,93.97
2019-01-28T16:28:11.086Z,95.36
2019-01-28T16:30:40.255Z,96.51
2019-01-28T16:33:09.653Z,95.95
2019-01-28T16:35:38.829Z,95.16
2019-01-28T16:38:08.300Z,96.70
2019-01-28T16:40:37.804Z,96.80
2019-01-28T16:43:07.378Z,97.64
2019-01-28T16:45:36.900Z,98.10
2019-01-28T16:48:07.766Z,98.41
2019-01-28T16:50:37.153Z,99.05
2019-01-28T16:53:07.156Z,99.53
2019-01-28T16:55:36.392Z,100.00
2019-01-28T16:58:07.048Z,100.00
2019-01-28T17:00:38.603Z,100.00
2019-01-28T17:03:08.925Z,100.00
2019-01-28T17:05:38.928Z,100.00
2019-01-28T17:08:09.558Z,100.00
2019-01-28T17:10:39.316Z,100.00
2019-01-28T17:13:11.160Z,100.00
2019-01-28T17:15:40.633Z,100.00
2019-01-28T17:18:10.152Z,100.00
2019-01-28T17:20:39.400Z,100.00
2019-01-28T17:23:08.923Z,100.00
2019-01-28T17:25:48.655Z,100.00
2019-01-28T17:28:17.924Z,100.00
2019-01-28T17:30:51.536Z,100.00
2019-01-28T17:33:22.050Z,100.00
2019-01-28T17:35:52.683Z,100.00
2019-01-28T17:38:22.775Z,100.00
2019-01-28T17:40:52.143Z,100.00
2019-01-28T17:43:21.851Z,100.00
2019-01-28T17:45:52.122Z,100.00
2019-01-28T17:48:21.900Z,100.00
2019-01-28T17:50:51.425Z,100.00
2019-01-28T17:53:22.367Z,100.00
2019-01-28T17:55:52.034Z,100.00
2019-01-28T17:58:21.553Z,100.00
2019-01-28T18:00:56.112Z,100.00
2019-01-28T18:03:25.357Z,100.00
2019-01-28T18:05:54.625Z,100.00
2019-01-28T18:08:24.225Z,100.00
2019-01-28T18:10:53.475Z,100.00
2019-01-28T18:13:22.735Z,100.00
2019-01-28T18:15:52.008Z,100.00
2019-01-28T18:18:21.542Z,100.00
2019-01-28T18:20:51.853Z,100.00
2019-01-28T18:23:31.884Z,100.00
2019-01-28T18:26:01.115Z,100.00
2019-01-28T18:28:31.769Z,100.00
2019-01-28T18:31:01.322Z,100.00
2019-01-28T18:33:30.676Z,100.00
2019-01-28T18:36:05.564Z,100.00
2019-01-28T18:38:31.099Z,100.00
2019-01-28T18:41:00.695Z,100.00
2019-01-28T18:43:30.487Z,100.00
2019-01-28T18:45:59.657Z,100.00
2019-01-28T18:48:29.937Z,100.00
2019-01-28T18:51:00.015Z,100.00
2019-01-28T18:53:29.532Z,100.00
2019-01-28T18:55:59.067Z,100.00
2019-01-28T18:58:29.400Z,100.00
2019-01-28T19:00:58.912Z,100.00
2019-01-28T19:03:28.078Z,100.00
2019-01-28T19:06:12.066Z,100.00
2019-01-28T19:09:05.624Z,100.00
2019-01-28T19:11:50.297Z,100.00
2019-01-28T19:14:37.146Z,100.00
2019-01-28T19:17:23.913Z,100.00
2019-01-28T19:20:21.770Z,100.00
2019-01-28T19:22:51.282Z,100.00
2019-01-28T19:25:20.917Z,100.00
2019-01-28T19:27:50.288Z,100.00
2019-01-28T19:30:20.649Z,100.00
2019-01-28T19:32:50.267Z,100.00
2019-01-28T19:35:19.448Z,100.00
2019-01-28T19:37:50.131Z,100.00
2019-01-28T19:40:19.467Z,100.00
2019-01-28T19:42:48.766Z,100.00
2019-01-28T19:45:20.024Z,100.00
2019-01-28T19:47:49.721Z,100.00
2019-01-28T19:50:21.792Z,100.00
2019-01-28T19:52:51.181Z,100.00
2019-01-28T19:55:20.889Z,100.00
2019-01-28T19:57:50.159Z,100.00
2019-01-28T20:00:24.977Z,100.00
2019-01-28T20:02:54.936Z,100.00
2019-01-28T20:05:24.482Z,100.00
2019-01-28T20:07:54.185Z,100.00
2019-01-28T20:10:23.694Z,100.00
2019-01-28T20:12:53.513Z,100.00
2019-01-28T20:15:22.925Z,100.00
2019-01-28T20:17:52.261Z,100.00
2019-01-28T20:20:21.508Z,100.00
2019-01-28T20:22:50.767Z,100.00
2019-01-28T20:25:21.465Z,100.00
2019-01-28T20:27:52.091Z,100.00
2019-01-28T20:30:23.922Z,100.00
2019-01-28T20:32:53.432Z,100.00
2019-01-28T20:35:24.045Z,100.00
2019-01-28T20:37:53.637Z,100.00
2019-01-28T20:40:22.815Z,100.00
2019-01-28T20:42:52.086Z,100.00
2019-01-28T20:45:23.040Z,100.00
2019-01-28T20:47:52.195Z,100.00
2019-01-28T20:50:23.731Z,100.00
2019-01-28T20:52:53.026Z,100.00
2019-01-28T20:55:22.588Z,100.00
2019-01-28T20:57:51.807Z,100.00
2019-01-28T21:00:23.340Z,100.00
2019-01-28T21:02:52.476Z,100.00
2019-01-28T21:05:22.052Z,100.00
2019-01-28T21:07:51.702Z,100.00
2019-01-28T21:10:21.892Z,100.00
2019-01-28T21:12:52.035Z,100.00
2019-01-28T21:15:21.287Z,100.00
2019-01-28T21:17:51.038Z,100.00
2019-01-28T21:20:20.418Z,100.00
2019-01-28T21:22:50.232Z,100.00
2019-01-28T21:25:21.508Z,100.00
2019-01-28T21:27:51.178Z,100.00
2019-01-28T21:30:23.358Z,100.00
2019-01-28T21:32:52.601Z,100.00
2019-01-28T21:35:34.334Z,100.00
2019-01-28T21:38:05.014Z,100.00
2019-01-28T21:40:34.580Z,100.00
2019-01-28T21:43:05.507Z,100.00
2019-01-28T21:45:35.023Z,100.00
2019-01-28T21:48:04.693Z,100.00
2019-01-28T21:50:35.685Z,100.00
2019-01-28T21:53:04.991Z,100.00
2019-01-28T21:55:34.139Z,100.00
2019-01-28T21:58:04.371Z,100.00
2019-01-28T22:00:33.654Z,100.00
2019-01-28T22:03:02.821Z,100.00
2019-01-28T22:05:32.494Z,100.00
2019-01-28T22:08:01.711Z,100.00
2019-01-28T22:10:30.883Z,100.00
2019-01-28T22:13:00.416Z,100.00
2019-01-28T22:15:31.459Z,100.00
2019-01-28T22:18:00.637Z,100.00
2019-01-28T22:20:29.860Z,100.00
2019-01-28T22:22:59.056Z,100.00
2019-01-28T22:25:28.694Z,100.00
2019-01-28T22:27:58.289Z,100.00
2019-01-28T22:30:27.459Z,100.00
2019-01-28T22:32:56.677Z,100.00
2019-01-28T22:35:27.304Z,100.00
2019-01-28T22:37:56.771Z,100.00
2019-01-28T22:40:25.967Z,100.00
2019-01-28T22:42:56.539Z,100.00
2019-01-28T22:45:26.149Z,100.00
2019-01-28T22:47:55.310Z,100.00
2019-01-28T22:50:24.490Z,100.00
2019-01-28T22:52:53.797Z,100.00
2019-01-28T22:55:23.561Z,100.00
2019-01-28T22:57:52.747Z,100.00
2019-01-28T23:00:51.540Z,100.00
2019-01-28T23:03:28.477Z,100.00
2019-01-28T23:05:58.059Z,100.00
2019-01-28T23:08:27.660Z,100.00
2019-01-28T23:10:57.179Z,100.00
2019-01-28T23:13:26.759Z,100.00
2019-01-28T23:15:55.964Z,100.00
2019-01-28T23:18:26.883Z,100.00
2019-01-28T23:20:56.451Z,100.00
2019-01-28T23:23:28.158Z,100.00
2019-01-28T23:25:57.399Z,100.00
2019-01-28T23:28:26.867Z,100.00
2019-01-28T23:30:56.033Z,100.00
2019-01-28T23:33:25.672Z,100.00
2019-01-28T23:35:55.179Z,100.00
2019-01-28T23:38:24.699Z,100.00
2019-01-28T23:40:53.985Z,100.00
2019-01-28T23:43:23.932Z,100.00
2019-01-28T23:45:53.545Z,100.00
2019-01-28T23:48:22.755Z,100.00
2019-01-28T23:50:54.189Z,100.00
2019-01-28T23:53:23.379Z,100.00
2019-01-28T23:55:52.609Z,100.00
2019-01-28T23:58:21.937Z,100.00
